Historyczne dane pomiarowe

Dodano dane terminowe – wersja testowa.

Dane z okresu 1951-2019

Wersja bazy: 1.34 [2019-03-16, lista zmian], aktualizacja planowana na 2019-04-15

Dane meteo z obszaru Polski uzyskane na podstawie danych udostępnionych przez Instytut Meteorologii i Gospodarki Wodnej – Państwowy Instytut Badawczy.

 

Wybierz Datę:    

       

TemperaturaWilgotnośćZachmurzenieWiatrCiśnienieWidzialnośćZjawiska
 Data    tng td wb rh cc ccl cl cm ch dir g1 g2 mslp ppp      
1999-06-28 00:00:00 15.8--- 14.3 14.991wxwxwx1wx--1012.5 988.2 0.0---wxw1
1999-06-28 01:00:00 15.4--- 14.2 14.793wxwxwx2wx--1012.4 988.0----wx
1999-06-28 02:00:00 15.1--- 12.7 13.786wxwxwx2wx--1012.4 988.0----wx
1999-06-28 03:00:00 14.7--- 13.5 14.093wxwxwx2wx--1012.0 987.6----wx
1999-06-28 04:00:00 15.1--- 13.9 14.493wxwxwx1wx--1012.0 987.6----wx
1999-06-28 05:00:00 16.6--- 14.5 15.387wxwxwxwx1wx--1012.2 988.0----wx
1999-06-28 06:00:00 19.6--- 14.6 16.573wxwxwxwx2wx--1012.0 988.0 0.0---wx
1999-06-28 07:00:00 21.2--- 14.6 17.166wxwxwxwx2wx--1012.0 988.1----wx
1999-06-28 08:00:00 22.3--- 15.7 18.166wxwxwxwx1wx--1012.3 988.5----wx
1999-06-28 09:00:00 24.0--- 15.4 18.559wxwxwxwx3wx--1012.4 988.7----wx
1999-06-28 10:00:00 24.8--- 14.9 18.554wxwxwxwxwx2wx--1012.3 988.7----wx
1999-06-28 11:00:00 26.4--- 15.6 19.451wxwxwxwx3wx--1012.1 988.6----wx
1999-06-28 12:00:00 27.2--- 16.5 20.252wxwxwx4wx--1012.0 988.6 0.0---wx
1999-06-28 13:00:00 27.4--- 16.1 20.050wxwxwx4wx--1011.7 988.3----wx
1999-06-28 14:00:00 26.8--- 16.4 20.053wxwxwxwx5wx--1011.7 988.3----wx
1999-06-28 15:00:00 25.9--- 17.3 20.259wxwxwxwx2wx--1012.2 988.7----wx
1999-06-28 16:00:00 19.4--- 16.3 17.482wxwxwx4wx--1014.9 990.8----wxw1
1999-06-28 17:00:00 17.8--- 14.9 16.083wxwxwxwx4wx--1015.2 991.0----wxw1
1999-06-28 18:00:00 18.0--- 15.4 16.485wxwxwxwx4wx--1015.2 991.0 2.8---wxw1
1999-06-28 19:00:00 17.4--- 15.1 16.087wxwxwx1wx--1016.3 992.0----wxw1
1999-06-28 20:00:00 16.8--- 15.8 16.294wxwxwxwx4wx--1017.7 993.3----wx
1999-06-28 21:00:00 17.4--- 15.8 16.490wxwxwxwx5wx--1018.3 994.0----wxw1
1999-06-28 22:00:00 16.0--- 14.7 15.292wxwxwx4wx--1019.0 994.5----wx
1999-06-28 23:00:00 15.4--- 14.1 14.692wxwxwx4wx--1019.2 994.7----wx

 

Źródłem pochodzenia danych jest Instytut Meteorologii i Gospodarki Wodnej – Państwowy Instytut Badawczy. Dane Instytutu Meteorologii i Gospodarki Wodnej – Państwowego Instytutu Badawczego zostały przetworzone.

Dane źródłowe można odnaleźć na stronie https://dane.imgw.pl